Time;durP1;ratioP1;P1;durP2;ratioP2;P2;SDS_P1;SDS_P2;PMS_P1;PMS_P2;Temp;Humidity;BMP_temperature;BMP_pressure;BME280_temperature;BME280_humidity;BME280_pressure;Samples;Min_cycle;Max_cycle;Signal;HPM_P1;HPM_P2
2024/01/06 00:00:36;;;;;;;11.07;6.67;;;;;;;8.87;100.00;101230.59;2079281;28;20239;-73
2024/01/06 00:01:36;;;;;;;9.27;5.93;;;;;;;8.85;100.00;101230.22;2076716;28;20250;-74
2024/01/06 00:02:37;;;;;;;10.37;6.63;;;;;;;8.86;100.00;101219.97;2077074;28;20180;-73
2024/01/06 00:03:37;;;;;;;16.37;6.87;;;;;;;8.83;100.00;101220.75;2076681;28;20199;-73
2024/01/06 00:04:38;;;;;;;9.60;6.30;;;;;;;8.35;100.00;101157.16;2076891;28;20299;-73
2024/01/06 00:05:38;;;;;;;16.80;7.30;;;;;;;8.47;100.00;101169.72;2077834;28;20189;-74
2024/01/06 00:06:39;;;;;;;15.13;6.47;;;;;;;7.69;100.00;101063.69;2079546;28;20186;-74
2024/01/06 00:07:39;;;;;;;10.47;6.67;;;;;;;8.83;100.00;101223.53;2077503;28;20256;-74
2024/01/06 00:08:40;;;;;;;12.83;6.67;;;;;;;8.89;100.00;101225.47;2077615;28;20626;-74
2024/01/06 00:09:40;;;;;;;10.47;6.33;;;;;;;8.95;100.00;101218.31;2077555;28;20194;-73
2024/01/06 00:10:41;;;;;;;16.23;7.10;;;;;;;8.02;100.00;101087.91;2076998;28;20196;-73
2024/01/06 00:11:41;;;;;;;13.20;6.70;;;;;;;8.71;100.00;101183.34;2077291;28;20207;-74
2024/01/06 00:12:42;;;;;;;11.83;6.20;;;;;;;8.70;100.00;101181.78;2079691;28;20762;-74
2024/01/06 00:13:42;;;;;;;12.30;6.53;;;;;;;9.04;100.00;101232.47;2077269;28;20189;-74
2024/01/06 00:14:45;;;;;;;10.67;6.60;;;;;;;8.30;100.00;101107.88;2077159;28;20276;-74
2024/01/06 00:15:45;;;;;;;9.00;5.77;;;;;;;8.95;100.00;101204.47;2076552;28;20197;-73
2024/01/06 00:16:46;;;;;;;10.10;6.20;;;;;;;9.14;100.00;101230.78;2068338;28;30618;-73
2024/01/06 00:17:46;;;;;;;10.37;6.23;;;;;;;9.14;100.00;101226.06;2076474;28;20196;-74
2024/01/06 00:18:47;;;;;;;12.20;5.70;;;;;;;9.15;100.00;101222.09;2079493;28;20252;-73
2024/01/06 00:19:51;;;;;;;14.97;6.60;;;;;;;9.16;100.00;101214.56;2077318;28;20212;-74
2024/01/06 00:20:52;;;;;;;10.50;5.40;;;;;;;8.91;100.00;101184.38;2077089;28;20486;-74
2024/01/06 00:21:52;;;;;;;8.80;6.10;;;;;;;9.14;100.00;101208.66;2077360;28;20471;-74
2024/01/06 00:22:53;;;;;;;9.23;6.00;;;;;;;9.12;100.00;101214.59;2076930;28;20449;-74
2024/01/06 00:23:55;;;;;;;14.87;6.50;;;;;;;9.00;100.00;101195.75;2076990;28;20566;-74
2024/01/06 00:24:56;;;;;;;9.97;5.93;;;;;;;9.24;100.00;101208.59;2077937;28;20189;-74
2024/01/06 00:25:56;;;;;;;11.10;5.73;;;;;;;9.14;100.00;101192.88;2078744;28;20442;-74
2024/01/06 00:26:57;;;;;;;9.87;5.23;;;;;;;8.64;100.00;101105.25;2077663;28;20658;-74
2024/01/06 00:27:57;;;;;;;10.37;5.70;;;;;;;9.26;100.00;101206.19;2077747;28;20615;-74
2024/01/06 00:28:58;;;;;;;10.20;6.10;;;;;;;9.26;100.00;101197.88;2077160;28;20193;-74
2024/01/06 00:29:58;;;;;;;11.40;5.67;;;;;;;9.22;100.00;101204.66;2077223;28;20232;-73
2024/01/06 00:30:59;;;;;;;10.27;5.80;;;;;;;9.25;100.00;101199.09;2077475;28;20584;-74
2024/01/06 00:31:59;;;;;;;11.30;5.90;;;;;;;9.17;100.00;101183.75;2079027;28;20246;-74
2024/01/06 00:33:00;;;;;;;8.80;5.00;;;;;;;9.25;100.00;101196.31;2077383;28;20207;-74
2024/01/06 00:34:00;;;;;;;9.23;5.83;;;;;;;9.23;100.00;101203.47;2077409;28;21107;-74
2024/01/06 00:35:02;;;;;;;10.90;5.40;;;;;;;9.24;100.00;101202.25;2077503;28;20194;-74
2024/01/06 00:36:02;;;;;;;9.67;5.23;;;;;;;9.24;100.00;101211.34;2076444;28;20786;-74
2024/01/06 00:37:03;;;;;;;13.17;6.10;;;;;;;9.26;100.00;101203.41;2077097;28;20791;-74
2024/01/06 00:38:04;;;;;;;10.07;5.63;;;;;;;9.28;100.00;101203.78;2078764;28;20291;-74
2024/01/06 00:39:04;;;;;;;9.57;5.27;;;;;;;9.30;100.00;101212.47;2077459;28;20192;-74
2024/01/06 00:40:05;;;;;;;10.10;5.80;;;;;;;9.29;100.00;101207.34;2076865;28;20227;-74
2024/01/06 00:41:06;;;;;;;11.23;6.00;;;;;;;9.24;100.00;101189.22;2077110;28;20197;-74
2024/01/06 00:42:06;;;;;;;8.53;5.30;;;;;;;9.35;100.00;101209.28;2076955;28;20969;-74
2024/01/06 00:43:07;;;;;;;10.63;5.50;;;;;;;8.33;100.00;101048.28;2077706;28;20200;-74
2024/01/06 00:44:07;;;;;;;9.77;5.37;;;;;;;9.36;100.00;101205.31;2078036;28;20243;-74
2024/01/06 00:45:08;;;;;;;10.50;5.80;;;;;;;9.40;100.00;101205.25;2077439;28;20246;-73
2024/01/06 00:46:09;;;;;;;10.60;5.40;;;;;;;9.08;100.00;101158.53;2077217;28;20199;-74
2024/01/06 00:47:09;;;;;;;9.17;5.43;;;;;;;9.34;100.00;101209.66;2077533;28;20189;-74
2024/01/06 00:48:10;;;;;;;7.93;4.73;;;;;;;8.43;100.00;101073.06;2077016;28;20251;-74
2024/01/06 00:49:10;;;;;;;11.83;5.90;;;;;;;9.31;100.00;101225.09;2077782;28;20546;-74
2024/01/06 00:50:11;;;;;;;10.87;6.23;;;;;;;9.35;100.00;101205.72;2077997;28;20669;-73
2024/01/06 00:51:12;;;;;;;9.53;5.57;;;;;;;8.56;100.00;101084.41;2077179;28;20220;-74
2024/01/06 00:52:12;;;;;;;9.27;5.27;;;;;;;9.32;100.00;101214.84;2077277;28;20448;-74
2024/01/06 00:53:13;;;;;;;10.97;6.07;;;;;;;9.30;100.00;101215.25;2076698;28;20671;-74
2024/01/06 00:54:14;;;;;;;10.83;6.00;;;;;;;9.33;100.00;101219.16;2076941;28;20687;-74
2024/01/06 00:55:14;;;;;;;11.17;5.37;;;;;;;9.37;100.00;101220.69;2078653;28;20181;-74
2024/01/06 00:56:15;;;;;;;9.13;5.53;;;;;;;9.39;100.00;101226.59;2078134;28;20251;-74
2024/01/06 00:57:15;;;;;;;9.03;5.27;;;;;;;9.39;100.00;101212.75;2077094;28;20277;-74
2024/01/06 00:58:16;;;;;;;13.63;6.20;;;;;;;9.36;100.00;101218.34;2077432;28;20229;-73
2024/01/06 00:59:16;;;;;;;10.97;5.63;;;;;;;9.37;100.00;101215.16;2077202;28;20201;-74
2024/01/06 01:00:17;;;;;;;9.93;5.93;;;;;;;9.40;100.00;101216.31;2077237;28;20211;-74
2024/01/06 01:01:17;;;;;;;9.87;6.07;;;;;;;9.42;100.00;101217.47;2078645;28;20185;-74
2024/01/06 01:02:18;;;;;;;10.07;5.97;;;;;;;9.12;100.00;101175.13;2077491;28;20196;-74
2024/01/06 01:03:18;;;;;;;9.87;5.63;;;;;;;9.38;100.00;101205.66;2077141;28;20251;-74
2024/01/06 01:04:19;;;;;;;10.07;6.17;;;;;;;9.31;100.00;101200.22;2076727;28;20579;-74
2024/01/06 01:05:19;;;;;;;10.37;5.77;;;;;;;9.29;100.00;101197.09;2077302;28;20208;-74
2024/01/06 01:06:20;;;;;;;12.37;6.03;;;;;;;9.34;100.00;101204.13;2077321;28;20348;-74
2024/01/06 01:07:20;;;;;;;10.30;5.60;;;;;;;9.23;100.00;101175.81;2079362;28;20189;-74
2024/01/06 01:08:21;;;;;;;8.97;5.50;;;;;;;9.37;100.00;101195.81;2076420;28;20234;-74
2024/01/06 01:09:21;;;;;;;10.10;5.57;;;;;;;9.37;100.00;101193.03;2077058;28;20628;-74
2024/01/06 01:10:22;;;;;;;7.97;5.43;;;;;;;9.33;100.00;101192.28;2077080;28;20255;-73
2024/01/06 01:11:22;;;;;;;11.43;6.20;;;;;;;9.33;100.00;101195.03;2076472;28;20190;-74
2024/01/06 01:12:23;;;;;;;10.20;5.43;;;;;;;9.33;100.00;101183.97;2076591;28;20212;-74
2024/01/06 01:13:24;;;;;;;13.67;5.47;;;;;;;8.59;100.00;101069.78;2078082;28;20248;-74
2024/01/06 01:14:24;;;;;;;10.50;5.33;;;;;;;9.22;100.00;101166.72;2077594;28;20269;-74
2024/01/06 01:15:25;;;;;;;9.20;5.27;;;;;;;9.33;100.00;101189.50;2076426;28;20201;-74
2024/01/06 01:16:25;;;;;;;8.03;5.33;;;;;;;8.83;100.00;101122.06;2077503;28;20231;-74
2024/01/06 01:17:26;;;;;;;8.83;5.33;;;;;;;9.23;100.00;101195.16;2076902;28;20192;-74
2024/01/06 01:18:26;;;;;;;10.90;6.20;;;;;;;9.26;100.00;101191.56;2076963;28;20643;-73
2024/01/06 01:19:27;;;;;;;9.90;5.67;;;;;;;9.23;100.00;101193.16;2078859;28;20188;-74
2024/01/06 01:20:27;;;;;;;9.33;5.63;;;;;;;9.21;100.00;101200.28;2077610;28;20272;-74
2024/01/06 01:21:28;;;;;;;11.10;5.00;;;;;;;9.20;100.00;101195.97;2076744;28;20209;-74
2024/01/06 01:22:28;;;;;;;8.87;5.20;;;;;;;9.16;100.00;101201.53;2077309;28;20212;-74
2024/01/06 01:23:29;;;;;;;10.27;4.97;;;;;;;8.31;100.00;101070.78;2078524;28;20207;-74
2024/01/06 01:24:29;;;;;;;9.73;5.27;;;;;;;8.75;100.00;101147.38;2078894;28;20189;-74
2024/01/06 01:25:30;;;;;;;13.40;6.03;;;;;;;9.11;100.00;101203.94;2080406;28;20259;-73
2024/01/06 01:26:30;;;;;;;10.83;5.73;;;;;;;9.08;100.00;101199.25;2078807;28;20242;-73
2024/01/06 01:27:31;;;;;;;8.10;4.90;;;;;;;9.07;100.00;101203.22;2078631;28;20200;-74
2024/01/06 01:28:31;;;;;;;13.33;5.63;;;;;;;8.43;100.00;101095.16;2079066;28;20200;-74
2024/01/06 01:29:32;;;;;;;8.77;5.57;;;;;;;9.01;100.00;101179.94;2078577;28;20242;-74
2024/01/06 01:30:32;;;;;;;7.67;5.20;;;;;;;9.00;100.00;101173.63;2078407;28;20177;-73
2024/01/06 01:31:34;;;;;;;11.67;5.83;;;;;;;8.86;100.00;101156.41;2080598;28;20213;-74
2024/01/06 01:32:34;;;;;;;8.17;5.30;;;;;;;8.97;100.00;101171.69;2078693;28;20573;-74
2024/01/06 01:33:35;;;;;;;10.37;5.53;;;;;;;8.93;100.00;101175.69;2078452;28;20466;-74
2024/01/06 01:34:35;;;;;;;10.93;5.83;;;;;;;8.75;100.00;101169.50;2078639;28;20272;-74
2024/01/06 01:35:36;;;;;;;12.20;5.60;;;;;;;8.68;100.00;101167.59;2077824;28;20302;-74
2024/01/06 01:36:36;;;;;;;8.37;5.33;;;;;;;8.63;100.00;101170.00;2078367;28;20189;-74
2024/01/06 01:37:37;;;;;;;9.37;5.73;;;;;;;8.60;100.00;101163.31;2080409;28;21071;-74
2024/01/06 01:38:37;;;;;;;9.73;5.37;;;;;;;8.70;100.00;101172.69;2079011;28;20228;-74
2024/01/06 01:39:38;;;;;;;8.53;4.77;;;;;;;8.72;100.00;101173.84;2078083;28;20727;-74
2024/01/06 01:40:38;;;;;;;8.00;5.27;;;;;;;8.71;100.00;101174.28;2077908;28;20203;-73
2024/01/06 01:41:40;;;;;;;11.57;4.80;;;;;;;8.75;100.00;101177.78;2078422;28;20274;-74
2024/01/06 01:42:42;;;;;;;10.13;5.77;;;;;;;8.55;100.00;101165.69;2078604;28;20185;-74
2024/01/06 01:43:43;;;;;;;9.10;5.20;;;;;;;7.64;100.00;101003.41;2080198;28;20975;-74
2024/01/06 01:44:44;;;;;;;8.47;5.40;;;;;;;8.74;100.00;101178.97;2078881;28;20800;-74
2024/01/06 01:45:48;;;;;;;8.10;5.07;;;;;;;8.72;100.00;101176.63;2078698;28;20212;-74
2024/01/06 01:46:49;;;;;;;11.30;5.37;;;;;;;8.73;100.00;101175.44;2078635;28;20810;-73
2024/01/06 01:47:50;;;;;;;14.53;5.77;;;;;;;8.49;100.00;101140.50;2078530;28;20527;-74
2024/01/06 01:48:50;;;;;;;17.33;5.43;;;;;;;8.69;100.00;101171.91;2078422;28;20191;-74
2024/01/06 01:49:54;;;;;;;10.67;5.83;;;;;;;8.49;100.00;101154.31;2080561;28;20434;-74
2024/01/06 01:50:54;;;;;;;10.37;4.77;;;;;;;8.61;100.00;101169.63;2080118;28;20200;-73
2024/01/06 01:51:55;;;;;;;12.47;6.33;;;;;;;8.58;100.00;101165.69;2078899;28;20484;-73
2024/01/06 01:52:55;;;;;;;10.50;5.90;;;;;;;8.56;100.00;101167.28;2078827;28;20198;-74
2024/01/06 01:53:57;;;;;;;9.87;5.70;;;;;;;7.68;100.00;101027.03;2078239;28;20288;-74
2024/01/06 01:54:59;;;;;;;12.57;6.40;;;;;;;8.58;100.00;101165.69;2078634;28;20187;-74
2024/01/06 01:56:00;;;;;;;8.73;5.77;;;;;;;7.74;100.00;101036.44;2078215;28;20530;-74
2024/01/06 01:57:02;;;;;;;8.90;5.17;;;;;;;8.54;100.00;101162.16;2080626;28;20431;-74
2024/01/06 01:58:03;;;;;;;14.47;5.77;;;;;;;8.54;100.00;101156.63;2077944;28;20930;-74
2024/01/06 01:59:09;;;;;;;7.33;5.43;;;;;;;8.35;100.00;101129.53;2078865;28;20462;-74
2024/01/06 02:00:10;;;;;;;10.90;5.17;;;;;;;8.46;100.00;101149.56;2077498;28;20220;-74
2024/01/06 02:01:11;;;;;;;11.20;5.63;;;;;;;8.23;100.00;101127.25;2076233;28;20531;-74
2024/01/06 02:02:12;;;;;;;8.23;5.10;;;;;;;8.50;100.00;101161.41;2078220;28;20423;-74
2024/01/06 02:03:13;;;;;;;11.50;5.97;;;;;;;8.48;100.00;101136.16;2080396;28;20211;-74
2024/01/06 02:04:13;;;;;;;10.20;5.83;;;;;;;8.39;100.00;101135.03;2079347;28;20227;-73
2024/01/06 02:05:14;;;;;;;12.10;5.77;;;;;;;8.43;100.00;101141.31;2078412;28;20462;-73
2024/01/06 02:06:15;;;;;;;10.33;5.90;;;;;;;8.27;100.00;101121.72;2078016;28;20203;-74
2024/01/06 02:07:16;;;;;;;9.57;5.57;;;;;;;8.42;100.00;101156.31;2077625;28;20351;-74
2024/01/06 02:08:16;;;;;;;11.83;5.30;;;;;;;8.32;100.00;101140.63;2078071;28;20484;-73
2024/01/06 02:09:17;;;;;;;9.77;5.13;;;;;;;8.00;100.00;101085.56;2079877;28;20181;-73
2024/01/06 02:10:18;;;;;;;12.00;5.50;;;;;;;8.35;100.00;101131.53;2078992;28;20196;-74
2024/01/06 02:11:18;;;;;;;9.77;5.37;;;;;;;8.32;100.00;101135.09;2077788;28;20193;-74
2024/01/06 02:12:19;;;;;;;13.20;6.50;;;;;;;8.42;100.00;101168.16;2078800;28;20475;-74
2024/01/06 02:13:22;;;;;;;9.93;6.20;;;;;;;8.42;100.00;101140.56;2077614;28;20180;-73
2024/01/06 02:14:22;;;;;;;10.83;5.37;;;;;;;8.42;100.00;101146.09;2080395;28;20188;-73
2024/01/06 02:15:23;;;;;;;9.90;5.43;;;;;;;8.42;100.00;101137.78;2078519;28;20434;-74
2024/01/06 02:16:23;;;;;;;17.77;5.70;;;;;;;8.36;100.00;101122.06;2078529;28;20200;-74
2024/01/06 02:17:25;;;;;;;10.97;5.27;;;;;;;7.27;100.00;100950.81;2077860;28;20193;-74
2024/01/06 02:18:25;;;;;;;8.83;5.20;;;;;;;8.24;100.00;101108.69;2079091;28;20647;-74
2024/01/06 02:19:26;;;;;;;8.20;4.87;;;;;;;8.30;100.00;101127.22;2079351;28;20807;-74
2024/01/06 02:20:30;;;;;;;11.03;5.23;;;;;;;8.34;100.00;101138.22;2077269;28;20613;-74
2024/01/06 02:21:31;;;;;;;9.30;5.83;;;;;;;7.46;100.00;101009.03;2077609;28;20196;-74
2024/01/06 02:22:32;;;;;;;8.13;5.40;;;;;;;8.23;100.00;101132.00;2078784;28;20446;-74
2024/01/06 02:23:35;;;;;;;7.53;4.47;;;;;;;8.24;100.00;101134.34;2077449;28;20580;-74
2024/01/06 02:24:36;;;;;;;11.97;5.60;;;;;;;8.18;100.00;101124.09;2078401;28;20423;-74
2024/01/06 02:25:36;;;;;;;10.37;5.33;;;;;;;8.13;100.00;101122.56;2080123;28;20466;-74
2024/01/06 02:26:37;;;;;;;10.27;5.60;;;;;;;8.13;100.00;101132.81;2078557;28;20219;-74
2024/01/06 02:27:41;;;;;;;8.83;5.27;;;;;;;8.12;100.00;101143.06;2078275;28;20267;-74
2024/01/06 02:28:41;;;;;;;7.30;4.93;;;;;;;8.04;100.00;101121.44;2078276;28;20199;-74
2024/01/06 02:29:41;;;;;;;10.73;4.83;;;;;;;8.04;100.00;101126.97;2078393;28;20455;-74
2024/01/06 02:30:43;;;;;;;10.37;4.70;;;;;;;8.00;100.00;101126.97;2077583;28;20239;-74
2024/01/06 02:31:43;;;;;;;9.20;5.23;;;;;;;7.21;100.00;100993.78;2080254;28;20201;-74
2024/01/06 02:32:44;;;;;;;11.27;6.00;;;;;;;8.02;100.00;101129.31;2078731;28;20444;-74
2024/01/06 02:33:44;;;;;;;9.83;5.17;;;;;;;8.00;100.00;101124.19;2077844;28;20193;-74
2024/01/06 02:34:45;;;;;;;13.47;5.27;;;;;;;7.99;100.00;101119.09;2078568;28;20207;-74
2024/01/06 02:35:46;;;;;;;11.43;5.70;;;;;;;7.95;100.00;101121.84;2078301;28;20207;-74
2024/01/06 02:36:47;;;;;;;9.93;6.23;;;;;;;7.95;100.00;101123.84;2078120;28;20211;-74
2024/01/06 02:37:47;;;;;;;9.73;5.23;;;;;;;7.33;100.00;101043.75;2079989;28;20428;-74
2024/01/06 02:38:47;;;;;;;9.07;4.83;;;;;;;7.66;100.00;101076.31;2078468;28;20223;-74
2024/01/06 02:39:48;;;;;;;8.97;5.33;;;;;;;7.99;100.00;101128.16;2078342;28;20227;-74
2024/01/06 02:40:48;;;;;;;12.43;6.00;;;;;;;7.99;100.00;101133.66;2077889;28;20244;-73
2024/01/06 02:41:49;;;;;;;9.80;6.20;;;;;;;7.97;100.00;101121.47;2077960;28;20204;-73
2024/01/06 02:42:50;;;;;;;12.17;4.23;;;;;;;8.01;100.00;101128.56;2078180;28;20181;-74
2024/01/06 02:43:50;;;;;;;11.23;5.57;;;;;;;7.97;100.00;101119.50;2079718;28;20696;-74
2024/01/06 02:44:51;;;;;;;8.73;5.80;;;;;;;7.95;100.00;101110.81;2078559;28;20216;-74
2024/01/06 02:45:51;;;;;;;8.20;5.27;;;;;;;7.97;100.00;101111.22;2078463;28;20582;-74
2024/01/06 02:46:54;;;;;;;7.50;5.47;;;;;;;7.97;100.00;101115.94;2078372;28;20733;-74
2024/01/06 02:47:54;;;;;;;10.30;5.93;;;;;;;7.99;100.00;101110.81;2077798;28;20314;-74
2024/01/06 02:48:55;;;;;;;9.43;6.00;;;;;;;7.99;100.00;101108.84;2078375;28;20427;-74
2024/01/06 02:49:55;;;;;;;9.70;5.97;;;;;;;7.73;100.00;101069.94;2080009;28;20272;-73
2024/01/06 02:50:56;;;;;;;9.90;6.40;;;;;;;8.02;100.00;101107.25;2077621;28;20598;-74
2024/01/06 02:51:57;;;;;;;8.83;5.33;;;;;;;8.01;100.00;101114.75;2078162;28;20678;-74
2024/01/06 02:54:16;;;;;;;8.57;5.40;;;;;;;8.02;100.00;101115.53;2077165;28;20201;-74
2024/01/06 02:55:16;;;;;;;7.70;4.93;;;;;;;8.02;100.00;101121.84;2077983;28;20444;-74
2024/01/06 02:56:17;;;;;;;5.90;4.73;;;;;;;8.01;100.00;101113.94;2077161;28;20216;-74
2024/01/06 02:57:18;;;;;;;8.40;4.23;;;;;;;7.98;100.00;101112.78;2077562;28;20271;-74
2024/01/06 02:58:18;;;;;;;6.80;4.63;;;;;;;7.41;100.00;101031.50;2079957;28;20196;-74
2024/01/06 02:59:19;;;;;;;7.53;5.17;;;;;;;7.94;100.00;101105.72;2078283;28;20517;-74
2024/01/06 03:00:19;;;;;;;12.00;6.33;;;;;;;7.89;100.00;101112.44;2077570;28;20223;-74
2024/01/06 03:01:20;;;;;;;11.33;5.50;;;;;;;7.90;100.00;101110.47;2076800;28;20202;-74
2024/01/06 03:02:20;;;;;;;8.77;5.03;;;;;;;7.74;100.00;101099.91;2078068;28;20194;-74
2024/01/06 03:03:21;;;;;;;9.10;4.87;;;;;;;7.52;100.00;101065.34;2078254;28;20192;-74
2024/01/06 03:04:21;;;;;;;11.90;5.97;;;;;;;7.84;100.00;101112.84;2079624;28;20265;-74
2024/01/06 03:05:22;;;;;;;8.70;5.77;;;;;;;7.83;100.00;101113.25;2078379;28;20208;-74
2024/01/06 03:06:22;;;;;;;13.03;6.30;;;;;;;7.83;100.00;101111.28;2078376;28;20579;-74
2024/01/06 03:07:23;;;;;;;9.90;5.37;;;;;;;7.83;100.00;101107.72;2078306;28;20617;-74
2024/01/06 03:08:23;;;;;;;9.10;5.33;;;;;;;7.82;100.00;101103.41;2078152;28;20692;-74
2024/01/06 03:09:24;;;;;;;13.50;6.40;;;;;;;7.44;100.00;101038.19;2078625;28;20189;-74
2024/01/06 03:10:24;;;;;;;10.00;5.73;;;;;;;6.92;100.00;100979.31;2078387;28;20276;-74
2024/01/06 03:11:25;;;;;;;8.00;4.80;;;;;;;7.76;100.00;101105.81;2076993;28;20284;-73
2024/01/06 03:12:25;;;;;;;10.43;5.10;;;;;;;7.77;100.00;101114.88;2077955;28;20207;-73
2024/01/06 03:13:26;;;;;;;10.03;5.03;;;;;;;7.77;100.00;101101.06;2077365;28;20219;-73
2024/01/06 03:14:26;;;;;;;9.53;6.03;;;;;;;7.72;100.00;101107.00;2078453;28;20583;-74
2024/01/06 03:15:27;;;;;;;10.30;6.50;;;;;;;7.67;100.00;101085.34;2080102;28;20200;-73
2024/01/06 03:16:27;;;;;;;12.70;6.40;;;;;;;7.71;100.00;101097.16;2078189;28;20267;-74
2024/01/06 03:17:28;;;;;;;10.10;6.40;;;;;;;7.68;100.00;101100.75;2076979;28;21252;-73
2024/01/06 03:18:29;;;;;;;8.50;6.27;;;;;;;7.67;100.00;101099.16;2078440;28;20269;-74
2024/01/06 03:19:30;;;;;;;10.30;5.30;;;;;;;7.65;100.00;101107.84;2077776;28;20470;-74
2024/01/06 03:20:31;;;;;;;6.80;4.30;;;;;;;7.66;100.00;101111.38;2075438;28;20225;-74
2024/01/06 03:21:31;;;;;;;6.90;4.37;;;;;;;7.65;100.00;101118.06;2079251;28;20431;-73
2024/01/06 03:22:32;;;;;;;6.40;4.57;;;;;;;7.58;100.00;101107.09;2078187;28;20205;-74
2024/01/06 03:23:33;;;;;;;7.17;5.23;;;;;;;6.44;100.00;100938.94;2077524;28;20212;-74
2024/01/06 03:24:34;;;;;;;7.27;4.87;;;;;;;7.48;100.00;101105.16;2077238;28;20203;-74
2024/01/06 03:25:34;;;;;;;9.10;5.00;;;;;;;7.36;100.00;101100.84;2077065;28;21051;-74
2024/01/06 03:26:35;;;;;;;8.97;5.73;;;;;;;7.23;100.00;101096.94;2076741;28;20195;-73
2024/01/06 03:27:35;;;;;;;9.83;4.73;;;;;;;7.36;100.00;101105.56;2079765;28;20191;-74
2024/01/06 03:28:36;;;;;;;7.97;4.40;;;;;;;7.31;100.00;101101.25;2078996;28;20642;-74
2024/01/06 03:29:36;;;;;;;9.40;5.37;;;;;;;7.06;100.00;101067.47;2076611;28;20258;-74
2024/01/06 03:30:37;;;;;;;11.40;5.50;;;;;;;7.26;100.00;101109.13;2076965;28;20212;-74
2024/01/06 03:31:37;;;;;;;9.97;5.53;;;;;;;7.23;100.00;101112.72;2076827;28;20204;-74
2024/01/06 03:32:38;;;;;;;9.10;4.93;;;;;;;7.07;100.00;101093.06;2077145;28;20225;-73
2024/01/06 03:33:38;;;;;;;7.13;4.93;;;;;;;6.78;100.00;101041.94;2079485;28;20722;-74
2024/01/06 03:34:41;;;;;;;10.00;5.87;;;;;;;7.18;100.00;101107.59;2077968;28;20196;-74
2024/01/06 03:35:41;;;;;;;10.10;6.23;;;;;;;6.46;100.00;100992.41;2077663;28;20196;-74
2024/01/06 03:36:42;;;;;;;11.77;7.87;;;;;;;7.17;100.00;101104.06;2077182;28;20538;-74
2024/01/06 03:37:43;;;;;;;13.03;8.30;;;;;;;6.14;100.00;100947.63;2068723;28;20247;-74
2024/01/06 03:38:44;;;;;;;11.57;6.55;;;;;;;7.15;100.00;101105.63;2076618;28;20589;-73
2024/01/06 03:39:44;;;;;;;17.27;9.03;;;;;;;7.14;100.00;101104.84;2079383;28;20193;-74
2024/01/06 03:40:45;;;;;;;12.77;7.30;;;;;;;7.19;100.00;101101.69;2078506;28;20200;-74
2024/01/06 03:41:45;;;;;;;15.47;8.90;;;;;;;7.18;100.00;101104.84;2076905;28;20279;-74
2024/01/06 03:42:46;;;;;;;12.80;8.10;;;;;;;7.19;100.00;101107.22;2077369;28;20204;-74
2024/01/06 03:43:46;;;;;;;13.27;7.77;;;;;;;7.11;100.00;101097.38;2076163;28;20212;-74
2024/01/06 03:44:46;;;;;;;9.90;5.77;;;;;;;7.21;100.00;101107.59;2077736;28;20184;-74
2024/01/06 03:45:47;;;;;;;10.50;6.07;;;;;;;7.20;100.00;101097.75;2079291;28;20215;-74
2024/01/06 03:46:47;;;;;;;11.63;6.93;;;;;;;7.20;100.00;101100.50;2077528;28;20191;-74
2024/01/06 03:47:48;;;;;;;10.03;6.97;;;;;;;7.20;100.00;101100.50;2077216;28;20228;-74
2024/01/06 03:48:49;;;;;;;9.43;6.13;;;;;;;6.13;100.00;100934.28;2077915;28;20206;-74
2024/01/06 03:49:49;;;;;;;10.90;5.83;;;;;;;7.11;100.00;101102.09;2077266;28;20203;-74
2024/01/06 03:50:50;;;;;;;9.77;4.87;;;;;;;6.85;100.00;101063.97;2077020;28;20213;-74
2024/01/06 03:51:50;;;;;;;11.10;5.40;;;;;;;7.11;100.00;101096.56;2079666;28;20187;-74
2024/01/06 03:52:51;;;;;;;9.30;6.00;;;;;;;7.14;100.00;101098.56;2078058;28;20189;-74
2024/01/06 03:53:51;;;;;;;12.47;5.73;;;;;;;7.17;100.00;101100.53;2076463;28;20273;-74
2024/01/06 03:54:52;;;;;;;8.57;5.90;;;;;;;7.07;100.00;101099.34;2077510;28;20187;-74
2024/01/06 03:55:52;;;;;;;9.63;5.00;;;;;;;6.65;100.00;101038.03;2076816;28;20200;-74
2024/01/06 03:56:53;;;;;;;7.20;4.10;;;;;;;7.10;100.00;101106.03;2077186;28;20187;-74
2024/01/06 03:57:53;;;;;;;8.03;4.37;;;;;;;7.07;100.00;101095.81;2079569;28;20250;-73
2024/01/06 03:58:54;;;;;;;11.67;5.87;;;;;;;6.95;100.00;101099.78;2077685;28;20204;-74
2024/01/06 03:59:54;;;;;;;7.07;4.47;;;;;;;6.82;100.00;101076.56;2076808;28;20709;-73
2024/01/06 04:00:55;;;;;;;7.90;5.03;;;;;;;7.05;100.00;101104.47;2076667;28;20218;-74
2024/01/06 04:01:55;;;;;;;11.40;5.10;;;;;;;6.74;100.00;101050.22;2077144;28;20207;-74
2024/01/06 04:02:56;;;;;;;12.90;5.07;;;;;;;7.14;100.00;101104.06;2076704;28;20185;-74
2024/01/06 04:03:56;;;;;;;8.00;4.57;;;;;;;7.07;100.00;101082.03;2078631;28;20645;-73
2024/01/06 04:04:57;;;;;;;10.83;4.13;;;;;;;7.13;100.00;101089.47;2077530;28;20263;-74
2024/01/06 04:05:58;;;;;;;7.90;3.83;;;;;;;6.95;100.00;101069.47;2077856;28;20198;-74
2024/01/06 04:06:58;;;;;;;5.50;3.73;;;;;;;7.00;100.00;101080.09;2077740;28;20271;-73
2024/01/06 04:07:59;;;;;;;8.67;4.67;;;;;;;6.80;100.00;101058.84;2077510;28;20275;-74
2024/01/06 04:09:00;;;;;;;14.33;5.17;;;;;;;6.89;100.00;101059.25;2077543;28;20677;-74
2024/01/06 04:10:01;;;;;;;7.32;4.72;;;;;;;7.01;100.00;101080.84;2079505;28;20173;-74
2024/01/06 04:11:01;;;;;;;6.83;5.13;;;;;;;6.01;100.00;100927.19;2077072;28;20651;-73
2024/01/06 04:12:02;;;;;;;13.37;4.03;;;;;;;7.04;100.00;101085.59;2077856;28;20658;-74
2024/01/06 04:13:03;;;;;;;10.23;4.50;;;;;;;7.03;100.00;101087.53;2077869;28;20220;-74
2024/01/06 04:14:03;;;;;;;5.70;3.63;;;;;;;6.69;100.00;101039.59;2077243;28;20272;-73
2024/01/06 04:15:04;;;;;;;6.37;3.97;;;;;;;7.01;100.00;101106.44;2077709;28;20238;-74
2024/01/06 04:16:05;;;;;;;5.10;3.30;;;;;;;7.02;100.00;101093.47;2079283;28;20182;-74
2024/01/06 04:17:05;;;;;;;9.60;3.87;;;;;;;7.01;100.00;101089.13;2076163;28;20717;-73
2024/01/06 04:18:06;;;;;;;6.13;3.77;;;;;;;6.88;100.00;101087.97;2077680;28;20190;-74
2024/01/06 04:19:07;;;;;;;6.13;3.80;;;;;;;7.03;100.00;101081.25;2077673;28;20189;-74
2024/01/06 04:20:11;;;;;;;7.10;3.70;;;;;;;7.06;100.00;101077.69;2077475;28;20572;-73
2024/01/06 04:21:11;;;;;;;6.75;3.65;;;;;;;7.07;100.00;101073.78;2077348;28;20196;-73
2024/01/06 04:22:12;;;;;;;7.03;4.17;;;;;;;7.08;100.00;101072.59;2079645;28;20277;-74
2024/01/06 04:23:12;;;;;;;9.73;3.27;;;;;;;7.06;100.00;101069.41;2076512;28;20199;-74
2024/01/06 04:24:13;;;;;;;11.43;4.63;;;;;;;7.14;100.00;101071.00;2076648;28;20189;-73
2024/01/06 04:25:13;;;;;;;11.17;4.00;;;;;;;7.09;100.00;101054.88;2077360;28;20224;-74
2024/01/06 04:26:14;;;;;;;6.90;3.80;;;;;;;7.22;100.00;101078.84;2077059;28;20197;-74
2024/01/06 04:27:15;;;;;;;7.40;3.93;;;;;;;7.26;100.00;101071.34;2076789;28;20716;-74
2024/01/06 04:28:15;;;;;;;8.87;3.77;;;;;;;7.26;100.00;101076.84;2078890;28;20549;-74
2024/01/06 04:29:16;;;;;;;7.17;4.40;;;;;;;7.21;100.00;101069.00;2076844;28;20246;-74
2024/01/06 04:30:17;;;;;;;8.70;4.53;;;;;;;7.17;100.00;101070.22;2077012;28;20189;-74
2024/01/06 04:31:17;;;;;;;10.25;4.45;;;;;;;7.14;100.00;101059.97;2076819;28;20200;-73
2024/01/06 04:32:18;;;;;;;13.70;4.17;;;;;;;7.23;100.00;101058.34;2077976;28;20205;-73
2024/01/06 04:33:19;;;;;;;11.23;4.45;;;;;;;7.25;100.00;101056.00;2076899;28;20745;-74
2024/01/06 04:34:19;;;;;;;6.87;4.20;;;;;;;7.14;100.00;101044.22;2079465;28;20645;-74
2024/01/06 04:35:21;;;;;;;8.87;4.30;;;;;;;7.04;100.00;101030.47;2077534;28;20660;-74
2024/01/06 04:36:21;;;;;;;6.38;4.18;;;;;;;6.40;100.00;100925.19;2077551;28;20243;-74
2024/01/06 04:37:22;;;;;;;8.97;4.07;;;;;;;7.22;100.00;101061.53;2076925;28;20578;-74
2024/01/06 04:38:22;;;;;;;8.77;3.77;;;;;;;7.32;100.00;101068.94;2077269;28;20575;-74
2024/01/06 04:39:23;;;;;;;8.43;3.83;;;;;;;7.37;100.00;101063.03;2077002;28;20646;-73
2024/01/06 04:40:24;;;;;;;8.88;4.50;;;;;;;7.38;100.00;101064.63;2078478;28;20212;-73
2024/01/06 04:41:25;;;;;;;6.87;4.37;;;;;;;7.31;100.00;101062.66;2076633;28;20194;-74
2024/01/06 04:42:25;;;;;;;12.23;4.00;;;;;;;7.27;100.00;101041.78;2077677;28;20197;-73